createdAt,value
2023-02-18T00:02:52.980Z,9.35
2023-02-18T00:06:00.823Z,4.72
2023-02-18T00:09:09.052Z,7.20
2023-02-18T00:12:18.355Z,6.18
2023-02-18T00:15:26.587Z,4.95
2023-02-18T00:18:34.778Z,5.47
2023-02-18T00:21:42.764Z,5.03
2023-02-18T00:24:50.903Z,6.55
2023-02-18T00:28:00.344Z,3.83
2023-02-18T00:31:08.858Z,6.18
2023-02-18T00:34:16.744Z,8.15
2023-02-18T00:37:24.743Z,6.28
2023-02-18T00:40:32.785Z,7.53
2023-02-18T00:43:42.127Z,7.85
2023-02-18T00:46:50.444Z,6.88
2023-02-18T00:49:58.400Z,5.43
2023-02-18T00:53:06.400Z,5.88
2023-02-18T00:56:15.438Z,4.65
2023-02-18T00:59:25.109Z,5.90
2023-02-18T01:02:33.439Z,4.18
2023-02-18T01:05:41.412Z,6.00
2023-02-18T01:08:49.738Z,4.68
2023-02-18T01:11:57.662Z,6.05
2023-02-18T01:15:07.670Z,7.03
2023-02-18T01:18:15.582Z,7.43
2023-02-18T01:21:23.667Z,5.03
2023-02-18T01:24:34.055Z,4.22
2023-02-18T01:27:42.872Z,4.57
2023-02-18T01:30:53.045Z,3.42
2023-02-18T01:34:00.962Z,3.65
2023-02-18T01:37:10.628Z,4.88
2023-02-18T01:40:20.203Z,4.72
2023-02-18T01:43:28.110Z,6.15
2023-02-18T01:46:37.534Z,3.65
2023-02-18T01:49:47.498Z,4.68
2023-02-18T01:52:55.284Z,7.70
2023-02-18T01:56:03.899Z,3.75
2023-02-18T01:59:13.914Z,3.17
2023-02-18T02:02:25.497Z,3.58
2023-02-18T02:05:35.162Z,4.88
2023-02-18T02:08:43.155Z,4.00
2023-02-18T02:12:24.966Z,3.85
2023-02-18T02:15:36.284Z,5.38
2023-02-18T02:18:51.153Z,5.57
2023-02-18T02:22:37.851Z,6.43
2023-02-18T02:26:18.129Z,4.35
2023-02-18T02:29:55.414Z,7.80
2023-02-18T02:33:27.834Z,5.63
2023-02-18T02:36:39.972Z,3.80
2023-02-18T02:39:55.117Z,3.03
2023-02-18T02:43:07.845Z,5.15
2023-02-18T02:46:20.483Z,6.72
2023-02-18T02:49:36.610Z,4.65
2023-02-18T02:52:47.211Z,5.28
2023-02-18T02:55:56.105Z,3.78
2023-02-18T02:59:06.996Z,5.70
2023-02-18T03:02:25.761Z,6.00
2023-02-18T03:08:50.542Z,5.43
2023-02-18T03:12:00.871Z,4.93
2023-02-18T03:15:15.038Z,5.45
2023-02-18T03:18:27.706Z,6.00
2023-02-18T03:21:38.087Z,4.53
2023-02-18T03:24:48.854Z,4.18
2023-02-18T03:27:57.568Z,4.22
2023-02-18T03:31:08.363Z,4.93
2023-02-18T03:34:17.927Z,2.95
2023-02-18T03:37:27.211Z,3.08
2023-02-18T03:40:36.668Z,2.88
2023-02-18T03:43:50.582Z,5.10
2023-02-18T03:46:58.730Z,5.05
2023-02-18T03:50:08.154Z,3.67
2023-02-18T03:53:16.546Z,6.20
2023-02-18T03:56:25.997Z,6.10
2023-02-18T03:59:34.092Z,4.95
2023-02-18T04:02:42.217Z,5.55
2023-02-18T04:05:50.375Z,5.30
2023-02-18T04:08:58.516Z,4.47
2023-02-18T04:12:08.509Z,3.95
2023-02-18T04:15:16.816Z,4.25
2023-02-18T04:18:24.649Z,5.72
2023-02-18T04:21:32.689Z,4.35
2023-02-18T04:24:40.762Z,5.38
2023-02-18T04:27:50.339Z,4.70
2023-02-18T04:30:58.694Z,3.38
2023-02-18T04:34:06.479Z,4.10
2023-02-18T04:37:14.517Z,6.25
2023-02-18T04:40:22.465Z,4.53
2023-02-18T04:43:31.920Z,2.90
2023-02-18T04:46:40.043Z,2.13
2023-02-18T04:49:48.230Z,3.40
2023-02-18T04:52:56.527Z,4.72
2023-02-18T04:56:05.133Z,3.08
2023-02-18T04:59:14.760Z,3.40
2023-02-18T05:02:22.839Z,2.60
2023-02-18T05:05:30.938Z,3.67
2023-02-18T05:08:39.004Z,2.67
2023-02-18T05:11:47.452Z,5.40
2023-02-18T05:14:56.967Z,5.30
2023-02-18T05:18:05.298Z,4.50
2023-02-18T05:21:13.253Z,3.28
2023-02-18T05:24:21.404Z,4.72
2023-02-18T05:27:29.545Z,6.10
2023-02-18T05:30:38.641Z,4.47
2023-02-18T05:33:46.699Z,7.25
2023-02-18T05:36:54.713Z,3.85
2023-02-18T05:40:02.887Z,3.47
2023-02-18T05:43:11.096Z,4.57
2023-02-18T05:46:20.569Z,5.18
2023-02-18T05:49:28.590Z,4.03
2023-02-18T05:52:36.248Z,3.65
2023-02-18T05:55:44.519Z,9.27
2023-02-18T05:58:52.737Z,2.08
2023-02-18T06:02:02.234Z,4.10
2023-02-18T06:05:10.590Z,4.15
2023-02-18T06:08:20.148Z,5.07
2023-02-18T06:11:27.926Z,4.55
2023-02-18T06:14:35.973Z,1.90
2023-02-18T06:17:45.364Z,4.68
2023-02-18T06:20:53.240Z,3.65
2023-02-18T06:24:01.321Z,4.63
2023-02-18T06:27:09.410Z,3.90
2023-02-18T06:30:17.449Z,3.45
2023-02-18T06:33:27.157Z,4.40
2023-02-18T06:36:35.102Z,4.32
2023-02-18T06:39:43.094Z,2.70
2023-02-18T06:42:51.332Z,4.95
2023-02-18T06:45:59.386Z,5.60
2023-02-18T06:49:08.776Z,7.35
2023-02-18T06:52:16.911Z,2.90
2023-02-18T06:55:24.829Z,4.30
2023-02-18T06:58:32.922Z,3.58
2023-02-18T07:01:40.919Z,2.97
2023-02-18T07:04:50.345Z,4.72
2023-02-18T07:07:58.366Z,5.40
2023-02-18T07:11:06.461Z,3.53
2023-02-18T07:14:14.525Z,4.38
2023-02-18T07:17:22.341Z,4.78
2023-02-18T07:20:31.731Z,3.78
2023-02-18T07:23:39.695Z,3.33
2023-02-18T07:26:47.801Z,4.82
2023-02-18T07:29:56.310Z,1.80
2023-02-18T07:33:04.700Z,4.05
2023-02-18T07:36:14.011Z,5.97
2023-02-18T07:39:21.942Z,4.20
2023-02-18T07:42:30.144Z,3.13
2023-02-18T07:45:39.476Z,4.28
2023-02-18T07:48:47.388Z,4.72
2023-02-18T07:51:56.516Z,3.65
2023-02-18T07:55:04.707Z,7.55
2023-02-18T07:58:12.623Z,4.00
2023-02-18T08:01:20.564Z,2.55
2023-02-18T08:04:28.387Z,5.82
2023-02-18T08:07:37.823Z,3.63
2023-02-18T08:10:45.977Z,4.20
2023-02-18T08:13:53.659Z,3.92
2023-02-18T08:17:01.691Z,4.25
2023-02-18T08:20:10.524Z,2.97
2023-02-18T08:23:19.838Z,4.85
2023-02-18T08:26:27.783Z,7.18
2023-02-18T08:29:36.089Z,5.07
2023-02-18T08:32:43.857Z,5.68
2023-02-18T08:35:52.543Z,5.28
2023-02-18T08:39:02.020Z,7.28
2023-02-18T08:42:10.161Z,3.05
2023-02-18T08:45:18.397Z,4.85
2023-02-18T08:48:26.539Z,4.50
2023-02-18T08:51:34.354Z,2.22
2023-02-18T08:54:43.847Z,5.32
2023-02-18T08:57:51.984Z,5.30
2023-02-18T09:01:03.055Z,4.88
2023-02-18T09:04:10.987Z,11.48
2023-02-18T09:07:19.382Z,2.47
2023-02-18T09:10:28.729Z,3.72
2023-02-18T09:13:36.821Z,3.95
2023-02-18T09:16:44.977Z,5.88
2023-02-18T09:19:53.161Z,4.40
2023-02-18T09:23:03.602Z,4.75
2023-02-18T09:26:15.236Z,4.53
2023-02-18T09:29:22.962Z,3.83
2023-02-18T09:32:35.362Z,3.47
2023-02-18T09:35:43.867Z,3.83
2023-02-18T09:38:52.051Z,4.47
2023-02-18T09:42:03.121Z,4.05
2023-02-18T09:45:12.232Z,5.60
2023-02-18T09:48:21.055Z,3.05
2023-02-18T09:51:29.056Z,4.13
2023-02-18T09:54:37.196Z,12.52
2023-02-18T09:57:47.316Z,3.55
2023-02-18T10:00:57.594Z,4.30
2023-02-18T10:04:08.090Z,5.85
2023-02-18T10:07:20.678Z,3.42
2023-02-18T10:10:33.483Z,3.55
2023-02-18T10:16:51.479Z,4.30
2023-02-18T10:19:59.606Z,2.28
2023-02-18T10:23:07.872Z,5.93
2023-02-18T10:26:17.139Z,3.15
2023-02-18T10:29:26.466Z,3.60
2023-02-18T10:32:35.442Z,2.63
2023-02-18T10:35:46.376Z,2.65
2023-02-18T10:39:22.085Z,4.18
2023-02-18T10:42:35.882Z,2.95
2023-02-18T10:45:47.548Z,3.25
2023-02-18T10:49:05.960Z,5.82
2023-02-18T10:52:16.727Z,3.38
2023-02-18T10:55:35.614Z,3.55
2023-02-18T10:58:44.298Z,5.35
2023-02-18T11:01:57.534Z,3.65
2023-02-18T11:05:08.810Z,3.72
2023-02-18T11:08:19.479Z,6.82
2023-02-18T11:11:30.058Z,4.55
2023-02-18T11:14:43.042Z,3.17
2023-02-18T11:21:01.623Z,2.42
2023-02-18T11:24:11.455Z,4.65
2023-02-18T11:27:22.798Z,3.30
2023-02-18T11:30:34.059Z,4.65
2023-02-18T11:33:44.382Z,3.97
2023-02-18T11:36:52.516Z,3.45
2023-02-18T11:40:00.606Z,4.65
2023-02-18T11:43:13.037Z,8.23
2023-02-18T11:46:22.114Z,7.07
2023-02-18T11:49:32.045Z,13.75
2023-02-18T11:52:41.195Z,4.03
2023-02-18T11:55:55.290Z,4.82
2023-02-18T11:59:03.605Z,3.42
2023-02-18T12:02:23.448Z,9.00
2023-02-18T12:05:32.847Z,4.40
2023-02-18T12:08:44.599Z,5.35
2023-02-18T12:11:54.046Z,9.15
2023-02-18T12:15:02.088Z,12.73
2023-02-18T12:18:51.156Z,8.57
2023-02-18T12:22:02.834Z,13.88
2023-02-18T12:25:27.111Z,12.35
2023-02-18T12:28:52.826Z,9.73
2023-02-18T12:32:11.504Z,11.98
2023-02-18T12:35:42.079Z,9.80
2023-02-18T12:38:55.664Z,8.88
2023-02-18T12:42:10.749Z,7.63
2023-02-18T12:45:51.226Z,10.57
2023-02-18T12:49:16.828Z,9.00
2023-02-18T12:52:30.738Z,6.35
2023-02-18T12:55:48.263Z,5.93
2023-02-18T12:58:59.137Z,10.00
2023-02-18T13:02:10.526Z,6.50
2023-02-18T13:05:24.642Z,11.43
2023-02-18T13:08:37.600Z,13.48
2023-02-18T13:11:48.794Z,7.60
2023-02-18T13:14:57.745Z,13.48
2023-02-18T13:18:07.638Z,8.35
2023-02-18T13:21:16.699Z,5.47
2023-02-18T13:24:29.424Z,5.63
2023-02-18T13:27:42.297Z,7.57
2023-02-18T13:30:51.146Z,7.45
2023-02-18T13:34:01.818Z,7.10
2023-02-18T13:37:16.730Z,9.38
2023-02-18T13:40:27.616Z,11.52
2023-02-18T13:43:37.282Z,7.88
2023-02-18T13:46:51.878Z,6.75
2023-02-18T13:50:02.675Z,6.95
2023-02-18T13:53:32.386Z,4.80
2023-02-18T13:56:43.055Z,9.05
2023-02-18T13:59:53.146Z,3.95
2023-02-18T14:03:08.100Z,7.32
2023-02-18T14:06:17.344Z,8.57
2023-02-18T14:09:52.195Z,6.18
2023-02-18T14:13:19.579Z,8.57
2023-02-18T14:16:31.901Z,7.20
2023-02-18T14:19:41.544Z,7.22
2023-02-18T14:22:52.711Z,9.18
2023-02-18T14:26:10.238Z,4.70
2023-02-18T14:29:29.254Z,4.22
2023-02-18T14:32:40.389Z,4.57
2023-02-18T14:35:51.438Z,6.40
2023-02-18T14:39:03.950Z,3.95
2023-02-18T14:42:21.237Z,7.10
2023-02-18T14:45:34.852Z,5.28
2023-02-18T14:49:09.493Z,6.97
2023-02-18T14:52:23.498Z,3.55
2023-02-18T14:55:33.196Z,3.25
2023-02-18T14:58:43.176Z,3.28
2023-02-18T15:01:51.450Z,3.53
2023-02-18T15:05:13.765Z,5.88
2023-02-18T15:08:21.995Z,3.38
2023-02-18T15:11:36.655Z,4.85
2023-02-18T15:14:44.754Z,5.00
2023-02-18T15:17:53.061Z,3.88
2023-02-18T15:21:03.359Z,3.15
2023-02-18T15:24:21.729Z,4.13
2023-02-18T15:27:30.512Z,3.40
2023-02-18T15:30:39.154Z,4.35
2023-02-18T15:33:48.646Z,6.35
2023-02-18T15:36:57.879Z,3.63
2023-02-18T15:40:13.700Z,4.00
2023-02-18T15:43:22.479Z,3.50
2023-02-18T15:46:30.409Z,3.40
2023-02-18T15:49:39.120Z,2.58
2023-02-18T15:52:48.464Z,2.35
2023-02-18T15:55:56.510Z,2.83
2023-02-18T15:59:18.590Z,6.22
2023-02-18T16:02:26.865Z,3.88
2023-02-18T16:05:38.335Z,1.92
2023-02-18T16:08:56.580Z,2.53
2023-02-18T16:12:05.673Z,2.42
2023-02-18T16:15:17.124Z,2.35
2023-02-18T16:18:27.677Z,3.75
2023-02-18T16:21:39.802Z,3.13
2023-02-18T16:24:58.384Z,4.83
2023-02-18T16:28:08.210Z,3.42
2023-02-18T16:31:17.270Z,1.80
2023-02-18T16:34:25.736Z,3.70
2023-02-18T16:37:39.703Z,1.33
2023-02-18T16:40:49.408Z,2.75
2023-02-18T16:43:57.092Z,2.00
2023-02-18T16:47:05.033Z,7.03
2023-02-18T16:50:15.914Z,2.03
2023-02-18T16:53:24.154Z,2.78
2023-02-18T16:56:35.370Z,4.30
2023-02-18T16:59:43.269Z,2.97
2023-02-18T17:02:52.849Z,4.57
2023-02-18T17:06:00.961Z,2.83
2023-02-18T17:09:15.085Z,2.70
2023-02-18T17:12:25.031Z,3.80
2023-02-18T17:15:34.587Z,3.15
2023-02-18T17:18:43.612Z,3.90
2023-02-18T17:21:51.648Z,1.52
2023-02-18T17:25:00.762Z,2.42
2023-02-18T17:28:10.158Z,5.20
2023-02-18T17:31:26.445Z,4.95
2023-02-18T17:34:36.136Z,5.57
2023-02-18T17:37:44.187Z,4.93
2023-02-18T17:40:52.273Z,4.75
2023-02-18T17:44:01.747Z,6.97
2023-02-18T17:47:09.878Z,10.75
2023-02-18T17:50:18.094Z,16.02
2023-02-18T17:53:26.120Z,111.53
2023-02-18T17:56:36.175Z,205.65
2023-02-18T17:59:45.574Z,178.60
2023-02-18T18:02:53.505Z,161.55
2023-02-18T18:06:02.314Z,144.35
2023-02-18T18:09:10.403Z,131.88
2023-02-18T18:12:18.423Z,133.50
2023-02-18T18:15:29.717Z,119.47
2023-02-18T18:18:37.892Z,112.65
2023-02-18T18:21:46.963Z,101.38
2023-02-18T18:24:54.771Z,89.57
2023-02-18T18:28:02.737Z,93.00
2023-02-18T18:31:13.593Z,102.82
2023-02-18T18:34:21.866Z,82.78
2023-02-18T18:37:29.837Z,87.13
2023-02-18T18:40:38.416Z,77.75
2023-02-18T18:43:46.458Z,89.75
2023-02-18T18:46:55.772Z,111.47
2023-02-18T18:50:03.856Z,108.15
2023-02-18T18:53:17.581Z,101.57
2023-02-18T18:56:25.505Z,91.60
2023-02-18T18:59:33.541Z,87.32
2023-02-18T19:02:43.122Z,86.85
2023-02-18T19:05:51.357Z,78.93
2023-02-18T19:08:59.357Z,73.28
2023-02-18T19:12:07.478Z,77.10
2023-02-18T19:15:16.316Z,81.47
2023-02-18T19:18:25.728Z,72.47
2023-02-18T19:21:33.676Z,62.08
2023-02-18T19:24:42.947Z,69.05
2023-02-18T19:27:51.240Z,64.40
2023-02-18T19:30:59.536Z,62.10
2023-02-18T19:34:08.842Z,57.65
2023-02-18T19:37:16.812Z,56.25
2023-02-18T19:40:25.823Z,58.80
2023-02-18T19:43:34.110Z,49.05
2023-02-18T19:46:42.294Z,48.03
2023-02-18T19:49:51.832Z,44.47
2023-02-18T19:52:59.992Z,49.35
2023-02-18T19:56:08.535Z,175.77
2023-02-18T19:59:16.674Z,81.97
2023-02-18T20:02:25.875Z,71.72
2023-02-18T20:05:37.818Z,87.72
2023-02-18T20:08:45.702Z,37.85
2023-02-18T20:11:53.801Z,42.63
2023-02-18T20:15:01.927Z,40.35
2023-02-18T20:18:09.780Z,33.58
2023-02-18T20:21:19.100Z,34.22
2023-02-18T20:24:27.176Z,31.08
2023-02-18T20:27:37.516Z,37.58
2023-02-18T20:30:47.666Z,30.73
2023-02-18T20:33:57.468Z,36.03
2023-02-18T20:37:06.559Z,27.88
2023-02-18T20:40:14.679Z,31.75
2023-02-18T20:43:22.663Z,37.65
2023-02-18T20:46:30.850Z,28.13
2023-02-18T20:49:39.602Z,23.63
2023-02-18T20:52:48.985Z,22.90
2023-02-18T20:55:57.297Z,24.13
2023-02-18T20:59:05.604Z,24.10
2023-02-18T21:02:13.947Z,28.77
2023-02-18T21:05:21.892Z,20.08
2023-02-18T21:08:31.429Z,18.45
2023-02-18T21:11:39.609Z,23.55
2023-02-18T21:14:47.490Z,21.98
2023-02-18T21:17:55.485Z,19.92
2023-02-18T21:21:03.642Z,19.05
2023-02-18T21:24:13.065Z,19.70
2023-02-18T21:27:20.855Z,16.70
2023-02-18T21:30:29.030Z,18.75
2023-02-18T21:33:37.218Z,17.25
2023-02-18T21:36:45.402Z,17.90
2023-02-18T21:39:55.054Z,14.02
2023-02-18T21:43:03.144Z,11.40
2023-02-18T21:46:13.052Z,15.25
2023-02-18T21:49:20.794Z,15.25
2023-02-18T21:52:29.045Z,14.13
2023-02-18T21:55:38.244Z,14.32
2023-02-18T21:58:46.418Z,10.68
2023-02-18T22:01:54.371Z,12.88
2023-02-18T22:05:02.895Z,13.30
2023-02-18T22:08:10.900Z,12.48
2023-02-18T22:11:20.570Z,10.63
2023-02-18T22:14:28.530Z,11.70
2023-02-18T22:17:36.355Z,11.32
2023-02-18T22:20:44.373Z,13.25
2023-02-18T22:23:52.729Z,8.35
2023-02-18T22:27:02.418Z,7.90
2023-02-18T22:30:14.128Z,10.82
2023-02-18T22:33:22.401Z,10.77
2023-02-18T22:36:30.563Z,8.57
2023-02-18T22:39:38.769Z,9.95
2023-02-18T22:42:47.964Z,10.73
2023-02-18T22:45:55.706Z,7.00
2023-02-18T22:49:04.516Z,7.70
2023-02-18T22:52:12.419Z,10.02
2023-02-18T22:55:20.671Z,10.43
2023-02-18T22:58:29.771Z,6.78
2023-02-18T23:01:38.438Z,11.05
2023-02-18T23:04:46.681Z,7.78
2023-02-18T23:07:54.544Z,9.85
2023-02-18T23:11:03.272Z,6.18
2023-02-18T23:14:22.244Z,7.30
2023-02-18T23:17:29.921Z,6.68
2023-02-18T23:20:55.079Z,7.63
2023-02-18T23:24:02.958Z,9.98
2023-02-18T23:27:11.785Z,11.10
2023-02-18T23:30:21.082Z,38.72
2023-02-18T23:33:29.357Z,8.55
2023-02-18T23:36:37.673Z,9.15
2023-02-18T23:39:47.327Z,6.28
2023-02-18T23:42:55.900Z,4.18
2023-02-18T23:46:05.263Z,4.40
2023-02-18T23:49:15.025Z,4.57
2023-02-18T23:52:23.109Z,5.95
2023-02-18T23:55:30.894Z,6.97
2023-02-18T23:58:38.896Z,6.00
